createdAt,value
2019-05-05T00:01:36.774Z,16.83
2019-05-05T00:04:39.864Z,16.77
2019-05-05T00:07:14.913Z,15.57
2019-05-05T00:09:45.005Z,15.63
2019-05-05T00:12:34.393Z,17.30
2019-05-05T00:15:21.094Z,16.73
2019-05-05T00:17:50.504Z,15.83
2019-05-05T00:20:19.455Z,15.80
2019-05-05T00:22:48.389Z,15.27
2019-05-05T00:25:17.319Z,15.40
2019-05-05T00:27:49.591Z,15.63
2019-05-05T00:30:19.411Z,18.10
2019-05-05T00:32:48.340Z,16.47
2019-05-05T00:35:17.336Z,17.33
2019-05-05T00:37:46.364Z,17.40
2019-05-05T00:40:15.297Z,17.77
2019-05-05T00:42:45.582Z,18.23
2019-05-05T00:45:15.500Z,21.50
2019-05-05T00:47:49.242Z,23.10
2019-05-05T00:50:20.112Z,21.67
2019-05-05T00:52:49.043Z,18.47
2019-05-05T00:55:17.994Z,18.77
2019-05-05T00:57:46.919Z,18.83
2019-05-05T01:00:21.785Z,28.53
2019-05-05T01:02:51.841Z,22.40
2019-05-05T01:05:34.412Z,17.07
2019-05-05T01:08:09.697Z,19.57
2019-05-05T01:10:38.886Z,22.77
2019-05-05T01:13:08.044Z,21.37
2019-05-05T01:15:37.167Z,20.03
2019-05-05T01:18:06.289Z,19.83
2019-05-05T01:20:35.308Z,19.93
2019-05-05T01:23:04.521Z,21.20
2019-05-05T01:25:34.694Z,21.63
2019-05-05T01:28:05.043Z,21.00
2019-05-05T01:30:36.226Z,22.37
2019-05-05T01:33:12.047Z,21.47
2019-05-05T01:35:41.174Z,21.13
2019-05-05T01:38:18.663Z,23.10
2019-05-05T01:41:10.960Z,24.20
2019-05-05T01:43:42.493Z,23.40
2019-05-05T01:46:11.505Z,24.80
2019-05-05T01:48:40.740Z,24.33
2019-05-05T01:51:09.865Z,23.03
2019-05-05T01:53:38.882Z,23.27
2019-05-05T01:56:08.570Z,20.50
2019-05-05T01:58:37.448Z,21.23
2019-05-05T02:01:06.363Z,20.10
2019-05-05T02:03:35.461Z,20.00
2019-05-05T02:06:05.230Z,20.83
2019-05-05T02:08:35.059Z,20.50
2019-05-05T02:11:05.224Z,23.77
2019-05-05T02:13:34.635Z,22.30
2019-05-05T02:16:04.665Z,20.17
2019-05-05T02:18:34.592Z,21.10
2019-05-05T02:21:05.266Z,21.00
2019-05-05T02:23:35.371Z,22.37
2019-05-05T02:26:05.155Z,21.90
2019-05-05T02:28:51.231Z,22.27
2019-05-05T02:31:40.475Z,21.17
2019-05-05T02:34:10.689Z,21.43
2019-05-05T02:36:39.717Z,21.83
2019-05-05T02:39:11.183Z,23.37
2019-05-05T02:41:40.826Z,24.60
2019-05-05T02:44:09.756Z,27.13
2019-05-05T02:46:55.139Z,25.00
2019-05-05T02:49:25.518Z,21.60
2019-05-05T02:51:55.281Z,23.53
2019-05-05T02:54:24.874Z,22.73
2019-05-05T02:56:54.297Z,23.77
2019-05-05T02:59:30.273Z,23.73
2019-05-05T03:02:09.197Z,21.43
2019-05-05T03:04:38.313Z,20.43
2019-05-05T03:07:09.044Z,21.73
2019-05-05T03:09:38.193Z,20.90
2019-05-05T03:12:10.860Z,20.63
2019-05-05T03:14:39.920Z,20.60
2019-05-05T03:17:11.212Z,21.63
2019-05-05T03:19:40.354Z,20.93
2019-05-05T03:22:09.534Z,19.80
2019-05-05T03:24:38.501Z,20.73
2019-05-05T03:27:10.054Z,20.50
2019-05-05T03:29:39.438Z,19.17
2019-05-05T03:32:11.411Z,19.17
2019-05-05T03:34:39.187Z,20.60
2019-05-05T03:37:09.081Z,20.67
2019-05-05T03:39:39.684Z,21.20
2019-05-05T03:42:24.365Z,22.17
2019-05-05T03:44:55.689Z,22.77
2019-05-05T03:47:24.668Z,23.03
2019-05-05T03:49:53.708Z,23.80
2019-05-05T03:52:24.494Z,22.07
2019-05-05T03:54:55.695Z,22.20
2019-05-05T03:57:24.772Z,22.60
2019-05-05T03:59:54.787Z,20.60
2019-05-05T04:02:46.058Z,20.90
2019-05-05T04:05:34.557Z,20.20
2019-05-05T04:08:03.974Z,22.10
2019-05-05T04:10:33.554Z,20.70
2019-05-05T04:13:04.658Z,20.37
2019-05-05T04:15:35.236Z,19.97
2019-05-05T04:18:25.551Z,20.83
2019-05-05T04:20:54.483Z,19.73
2019-05-05T04:23:24.535Z,20.40
2019-05-05T04:25:54.424Z,20.37
2019-05-05T04:28:24.121Z,20.53
2019-05-05T04:30:53.715Z,20.27
2019-05-05T04:33:23.644Z,21.30
2019-05-05T04:35:54.501Z,19.67
2019-05-05T04:38:24.314Z,20.20
2019-05-05T04:40:54.174Z,19.63
2019-05-05T04:43:24.611Z,20.53
2019-05-05T04:45:54.195Z,20.63
2019-05-05T04:48:54.543Z,20.63
2019-05-05T04:51:26.789Z,20.00
2019-05-05T04:54:26.701Z,19.40
2019-05-05T04:56:55.733Z,18.30
2019-05-05T04:59:24.646Z,20.17
2019-05-05T05:01:59.051Z,21.20
2019-05-05T05:04:50.914Z,18.50
2019-05-05T05:07:20.000Z,17.90
2019-05-05T05:09:48.899Z,16.97
2019-05-05T05:12:17.881Z,17.47
2019-05-05T05:14:46.856Z,16.07
2019-05-05T05:17:24.704Z,17.63
2019-05-05T05:19:54.236Z,18.93
2019-05-05T05:22:24.357Z,18.13
2019-05-05T05:24:54.094Z,19.40
2019-05-05T05:27:24.454Z,16.40
2019-05-05T05:29:56.590Z,17.27
2019-05-05T05:32:25.479Z,18.13
2019-05-05T05:34:54.493Z,16.60
2019-05-05T05:37:34.335Z,18.33
2019-05-05T05:40:10.705Z,17.13
2019-05-05T05:42:39.676Z,17.77
2019-05-05T05:45:39.723Z,18.03
2019-05-05T05:48:15.904Z,19.27
2019-05-05T05:50:56.161Z,18.30
2019-05-05T05:53:25.228Z,16.57
2019-05-05T05:55:54.625Z,17.50
2019-05-05T05:58:24.521Z,17.93
2019-05-05T06:00:54.490Z,17.37
2019-05-05T06:03:24.569Z,17.97
2019-05-05T06:05:54.107Z,19.37
2019-05-05T06:08:24.301Z,19.67
2019-05-05T06:10:54.716Z,17.93
2019-05-05T06:13:28.564Z,33.10
2019-05-05T06:15:58.166Z,19.77
2019-05-05T06:18:27.066Z,18.80
2019-05-05T06:21:07.233Z,17.70
2019-05-05T06:23:37.245Z,19.83
2019-05-05T06:26:07.235Z,19.20
2019-05-05T06:28:36.277Z,18.80
2019-05-05T06:31:05.257Z,18.57
2019-05-05T06:33:34.870Z,19.03
2019-05-05T06:36:04.034Z,19.57
2019-05-05T06:38:34.584Z,21.00
2019-05-05T06:41:18.789Z,21.40
2019-05-05T06:44:10.022Z,19.43
2019-05-05T06:46:59.164Z,19.53
2019-05-05T06:49:31.066Z,18.13
2019-05-05T06:52:03.882Z,17.60
2019-05-05T06:54:34.636Z,17.33
2019-05-05T06:57:09.955Z,39.47
2019-05-05T06:59:43.715Z,25.77
2019-05-05T07:02:14.384Z,37.37
2019-05-05T07:04:44.549Z,16.40
2019-05-05T07:07:16.818Z,18.03
2019-05-05T07:09:47.833Z,16.50
2019-05-05T07:12:16.767Z,15.10
2019-05-05T07:14:50.145Z,16.20
2019-05-05T07:17:19.367Z,14.97
2019-05-05T07:19:48.293Z,14.50
2019-05-05T07:22:17.878Z,14.73
2019-05-05T07:24:46.966Z,12.87
2019-05-05T07:27:18.478Z,17.30
2019-05-05T07:29:48.575Z,13.27
2019-05-05T07:32:17.516Z,12.93
2019-05-05T07:35:09.338Z,10.70
2019-05-05T07:37:38.430Z,13.40
2019-05-05T07:40:07.628Z,11.03
2019-05-05T07:42:37.775Z,10.63
2019-05-05T07:45:19.392Z,12.57
2019-05-05T07:47:37.564Z,21.43
2019-05-05T07:50:14.374Z,9.70
2019-05-05T07:52:38.206Z,10.43
2019-05-05T07:55:07.676Z,10.43
2019-05-05T07:57:36.695Z,10.43
2019-05-05T08:00:06.889Z,9.67
2019-05-05T08:02:35.816Z,14.63
2019-05-05T08:05:05.418Z,8.07
2019-05-05T08:07:34.447Z,8.17
2019-05-05T08:10:04.520Z,6.93
2019-05-05T08:12:34.250Z,12.50
2019-05-05T08:15:04.290Z,6.87
2019-05-05T08:17:50.217Z,7.90
2019-05-05T08:20:25.895Z,6.70
2019-05-05T08:22:55.093Z,5.67
2019-05-05T08:25:47.629Z,9.30
2019-05-05T08:28:30.916Z,6.70
2019-05-05T08:31:28.183Z,7.73
2019-05-05T08:33:57.218Z,7.33
2019-05-05T08:36:26.186Z,6.37
2019-05-05T08:38:55.194Z,6.43
2019-05-05T08:41:24.440Z,8.03
2019-05-05T08:43:54.472Z,8.60
2019-05-05T08:46:25.842Z,6.70
2019-05-05T08:48:54.928Z,6.93
2019-05-05T08:51:24.685Z,9.80
2019-05-05T08:53:54.607Z,10.93
2019-05-05T08:56:24.066Z,11.20
2019-05-05T08:58:54.494Z,11.97
2019-05-05T09:01:23.926Z,7.00
2019-05-05T09:03:53.543Z,4.57
2019-05-05T09:06:24.170Z,4.50
2019-05-05T09:08:54.817Z,6.00
2019-05-05T09:11:24.147Z,7.70
2019-05-05T09:13:53.515Z,5.50
2019-05-05T09:16:24.186Z,4.87
2019-05-05T09:18:59.522Z,7.70
2019-05-05T09:21:28.558Z,4.20
2019-05-05T09:24:02.609Z,4.70
2019-05-05T09:26:45.591Z,4.67
2019-05-05T09:29:24.329Z,9.77
2019-05-05T09:31:54.027Z,7.73
2019-05-05T09:34:24.053Z,9.33
2019-05-05T09:36:54.405Z,4.90
2019-05-05T09:39:24.707Z,6.37
2019-05-05T09:41:53.764Z,4.37
2019-05-05T09:44:27.592Z,4.27
2019-05-05T09:46:57.674Z,4.23
2019-05-05T09:49:28.818Z,3.40
2019-05-05T09:51:59.362Z,8.63
2019-05-05T09:54:28.346Z,3.17
2019-05-05T09:56:57.571Z,5.47
2019-05-05T09:59:26.490Z,6.53
2019-05-05T10:01:55.759Z,5.20
2019-05-05T10:04:26.045Z,5.70
2019-05-05T10:06:58.300Z,8.33
2019-05-05T10:09:27.500Z,5.17
2019-05-05T10:11:59.652Z,7.90
2019-05-05T10:14:28.620Z,5.70
2019-05-05T10:16:57.719Z,4.40
2019-05-05T10:19:26.707Z,5.87
2019-05-05T10:21:55.646Z,7.97
2019-05-05T10:24:33.900Z,3.97
2019-05-05T10:27:04.967Z,5.83
2019-05-05T10:29:34.935Z,3.57
2019-05-05T10:32:06.945Z,5.83
2019-05-05T10:34:36.067Z,4.90
2019-05-05T10:37:06.292Z,2.83
2019-05-05T10:39:43.873Z,5.17
2019-05-05T10:42:14.316Z,5.73
2019-05-05T10:44:44.948Z,3.87
2019-05-05T10:47:16.289Z,13.43
2019-05-05T10:49:46.885Z,4.50
2019-05-05T10:52:18.632Z,6.47
2019-05-05T10:54:49.658Z,3.50
2019-05-05T10:57:18.863Z,6.07
2019-05-05T10:59:47.982Z,6.97
2019-05-05T11:02:17.023Z,4.53
2019-05-05T11:04:46.031Z,4.33
2019-05-05T11:07:14.968Z,4.40
2019-05-05T11:09:44.451Z,5.77
2019-05-05T11:12:16.051Z,4.03
2019-05-05T11:14:46.791Z,3.50
2019-05-05T11:17:15.825Z,4.03
2019-05-05T11:19:46.431Z,4.10
2019-05-05T11:22:15.543Z,3.63
2019-05-05T11:24:57.250Z,7.40
2019-05-05T11:27:19.135Z,5.80
2019-05-05T11:30:06.132Z,4.77
2019-05-05T11:33:04.091Z,5.67
2019-05-05T11:35:48.597Z,3.73
2019-05-05T11:38:17.697Z,5.73
2019-05-05T11:40:46.876Z,2.53
2019-05-05T11:43:16.231Z,3.73
2019-05-05T11:45:45.609Z,13.23
2019-05-05T11:48:14.946Z,3.50
2019-05-05T11:50:45.112Z,4.00
2019-05-05T11:53:14.650Z,3.70
2019-05-05T11:55:46.340Z,2.67
2019-05-05T11:58:16.913Z,4.00
2019-05-05T12:00:46.095Z,4.70
2019-05-05T12:03:15.233Z,5.50
2019-05-05T12:05:46.955Z,4.10
2019-05-05T12:08:15.926Z,3.70
2019-05-05T12:11:04.887Z,3.10
2019-05-05T12:13:33.779Z,5.47
2019-05-05T12:16:04.827Z,4.80
2019-05-05T12:18:34.446Z,3.43
2019-05-05T12:21:05.154Z,5.40
2019-05-05T12:23:34.327Z,3.30
2019-05-05T12:26:34.755Z,4.77
2019-05-05T12:29:10.213Z,5.03
2019-05-05T12:31:45.775Z,4.27
2019-05-05T12:34:14.693Z,3.03
2019-05-05T12:36:44.509Z,8.37
2019-05-05T12:39:15.075Z,5.70
2019-05-05T12:41:47.261Z,8.63
2019-05-05T12:44:24.513Z,36.87
2019-05-05T12:47:03.808Z,149.77
2019-05-05T12:49:34.855Z,86.23
2019-05-05T12:52:05.380Z,12.87
2019-05-05T12:54:34.466Z,10.40
2019-05-05T12:57:05.281Z,6.03
2019-05-05T12:59:34.325Z,2.97
2019-05-05T13:02:03.894Z,2.30
2019-05-05T13:04:36.334Z,2.13
2019-05-05T13:07:09.132Z,3.03
2019-05-05T13:09:38.151Z,3.63
2019-05-05T13:12:07.574Z,4.10
2019-05-05T13:14:36.568Z,4.50
2019-05-05T13:17:07.575Z,2.93
2019-05-05T13:19:57.006Z,7.27
2019-05-05T13:22:40.293Z,4.30
2019-05-05T13:25:34.337Z,6.10
2019-05-05T13:28:04.110Z,3.30
2019-05-05T13:30:34.389Z,2.50
2019-05-05T13:33:03.773Z,4.53
2019-05-05T13:35:36.925Z,10.43
2019-05-05T13:38:05.985Z,6.60
2019-05-05T13:40:37.030Z,5.50
2019-05-05T13:43:06.009Z,2.83
2019-05-05T13:45:40.659Z,3.43
2019-05-05T13:48:09.630Z,3.33
2019-05-05T13:50:44.277Z,2.90
2019-05-05T13:53:16.974Z,3.50
2019-05-05T13:55:46.213Z,9.90
2019-05-05T13:58:17.056Z,3.03
2019-05-05T14:00:54.620Z,4.70
2019-05-05T14:03:29.383Z,8.67
2019-05-05T14:05:58.360Z,14.30
2019-05-05T14:08:27.345Z,19.00
2019-05-05T14:10:58.123Z,4.87
2019-05-05T14:13:27.319Z,2.77
2019-05-05T14:15:58.836Z,7.13
2019-05-05T14:18:27.766Z,3.77
2019-05-05T14:21:02.126Z,6.93
2019-05-05T14:23:34.528Z,4.53
2019-05-05T14:26:04.003Z,3.20
2019-05-05T14:28:34.021Z,11.07
2019-05-05T14:31:14.780Z,9.70
2019-05-05T14:34:01.114Z,4.77
2019-05-05T14:36:49.139Z,4.17
2019-05-05T14:39:19.290Z,2.60
2019-05-05T14:41:55.195Z,2.77
2019-05-05T14:44:24.166Z,4.30
2019-05-05T14:46:53.232Z,18.43
2019-05-05T14:49:24.471Z,12.47
2019-05-05T14:51:53.806Z,15.80
2019-05-05T14:54:25.634Z,17.83
2019-05-05T14:56:54.702Z,18.33
2019-05-05T14:59:23.837Z,6.80
2019-05-05T15:01:52.911Z,4.30
2019-05-05T15:04:25.179Z,5.73
2019-05-05T15:07:04.665Z,6.83
2019-05-05T15:09:50.146Z,6.17
2019-05-05T15:12:47.427Z,3.03
2019-05-05T15:15:16.606Z,12.47
2019-05-05T15:17:45.776Z,7.50
2019-05-05T15:20:16.546Z,4.87
2019-05-05T15:22:49.048Z,13.87
2019-05-05T15:25:19.417Z,3.90
2019-05-05T15:27:49.733Z,5.70
2019-05-05T15:30:19.022Z,5.53
2019-05-05T15:32:48.168Z,3.43
2019-05-05T15:35:18.863Z,7.90
2019-05-05T15:37:47.811Z,7.17
2019-05-05T15:40:16.960Z,42.40
2019-05-05T15:42:45.892Z,6.97
2019-05-05T15:45:16.534Z,8.33
2019-05-05T15:47:49.802Z,9.53
2019-05-05T15:50:19.090Z,8.93
2019-05-05T15:52:48.478Z,6.30
2019-05-05T15:55:24.522Z,8.97
2019-05-05T15:57:53.731Z,10.33
2019-05-05T16:00:22.799Z,6.83
2019-05-05T16:02:51.788Z,9.93
2019-05-05T16:05:21.019Z,29.33
2019-05-05T16:07:50.082Z,39.20
2019-05-05T16:10:19.191Z,10.33
2019-05-05T16:12:49.684Z,22.07
2019-05-05T16:15:38.144Z,26.37
2019-05-05T16:18:33.593Z,22.07
2019-05-05T16:21:30.849Z,39.03
2019-05-05T16:24:05.304Z,19.53
2019-05-05T16:26:34.235Z,10.30
2019-05-05T16:29:04.133Z,16.50
2019-05-05T16:31:34.236Z,18.67
2019-05-05T16:34:03.792Z,23.97
2019-05-05T16:36:33.581Z,12.17
2019-05-05T16:39:06.150Z,16.00
2019-05-05T16:41:36.786Z,23.90
2019-05-05T16:44:05.890Z,16.97
2019-05-05T16:46:34.819Z,36.33
2019-05-05T16:49:03.872Z,8.73
2019-05-05T16:51:36.331Z,13.30
2019-05-05T16:54:15.943Z,13.50
2019-05-05T16:56:49.721Z,11.97
2019-05-05T16:59:18.899Z,10.73
2019-05-05T17:01:48.050Z,12.37
2019-05-05T17:04:17.181Z,13.30
2019-05-05T17:06:46.219Z,12.63
2019-05-05T17:09:15.365Z,8.70
2019-05-05T17:12:03.601Z,12.20
2019-05-05T17:14:56.912Z,11.87
2019-05-05T17:17:34.843Z,16.73
2019-05-05T17:20:09.590Z,18.93
2019-05-05T17:22:44.777Z,11.80
2019-05-05T17:25:13.997Z,6.97
2019-05-05T17:27:48.765Z,7.73
2019-05-05T17:30:15.087Z,7.00
2019-05-05T17:32:45.695Z,7.13
2019-05-05T17:35:15.207Z,5.17
2019-05-05T17:37:45.659Z,6.03
2019-05-05T17:40:33.882Z,6.80
2019-05-05T17:43:24.317Z,7.20
2019-05-05T17:46:06.045Z,7.37
2019-05-05T17:49:05.818Z,6.40
2019-05-05T17:51:47.814Z,10.43
2019-05-05T17:54:24.210Z,9.60
2019-05-05T17:56:55.054Z,14.80
2019-05-05T17:59:25.498Z,12.20
2019-05-05T18:01:57.290Z,12.30
2019-05-05T18:04:26.680Z,16.17
2019-05-05T18:07:14.872Z,23.57
2019-05-05T18:10:18.011Z,30.00
2019-05-05T18:13:06.293Z,29.40
2019-05-05T18:15:55.423Z,27.10
2019-05-05T18:18:24.686Z,34.27
2019-05-05T18:20:55.298Z,62.13
2019-05-05T18:23:24.645Z,66.83
2019-05-05T18:25:54.842Z,86.73
2019-05-05T18:28:26.887Z,50.07
2019-05-05T18:30:56.254Z,48.40
2019-05-05T18:33:25.707Z,45.53
2019-05-05T18:35:54.993Z,28.43
2019-05-05T18:38:25.114Z,25.20
2019-05-05T18:40:56.640Z,15.27
2019-05-05T18:43:34.052Z,7.87
2019-05-05T18:46:08.171Z,12.03
2019-05-05T18:48:38.884Z,13.90
2019-05-05T18:51:10.421Z,13.77
2019-05-05T18:53:39.946Z,12.67
2019-05-05T18:56:10.009Z,10.27
2019-05-05T18:58:39.269Z,10.00
2019-05-05T19:01:17.639Z,10.23
2019-05-05T19:04:04.510Z,11.17
2019-05-05T19:07:01.488Z,12.33
2019-05-05T19:09:30.948Z,11.47
2019-05-05T19:12:00.743Z,10.33
2019-05-05T19:14:30.567Z,11.30
2019-05-05T19:17:00.039Z,12.27
2019-05-05T19:19:34.503Z,11.47
2019-05-05T19:22:10.539Z,11.30
2019-05-05T19:24:44.083Z,12.47
2019-05-05T19:27:14.373Z,9.43
2019-05-05T19:29:47.036Z,10.00
2019-05-05T19:32:17.076Z,15.27
2019-05-05T19:34:46.428Z,16.77
2019-05-05T19:37:15.788Z,13.07
2019-05-05T19:39:45.487Z,13.03
2019-05-05T19:42:14.655Z,11.33
2019-05-05T19:44:44.670Z,11.47
2019-05-05T19:47:20.477Z,8.67
2019-05-05T19:49:58.246Z,9.27
2019-05-05T19:52:27.542Z,9.47
2019-05-05T19:54:57.049Z,11.10
2019-05-05T19:57:26.247Z,10.33
2019-05-05T19:59:55.589Z,11.07
2019-05-05T20:02:25.865Z,10.60
2019-05-05T20:04:54.905Z,10.07
2019-05-05T20:07:24.906Z,9.23
2019-05-05T20:09:57.778Z,7.50
2019-05-05T20:12:26.854Z,6.17
2019-05-05T20:14:56.009Z,7.00
2019-05-05T20:17:36.192Z,7.77
2019-05-05T20:20:11.269Z,8.60
2019-05-05T20:22:40.225Z,7.73
2019-05-05T20:25:09.300Z,7.87
2019-05-05T20:27:38.371Z,8.37
2019-05-05T20:30:07.444Z,16.97
2019-05-05T20:32:42.898Z,18.77
2019-05-05T20:35:37.032Z,48.50
2019-05-05T20:38:14.149Z,29.43
2019-05-05T20:40:44.329Z,23.27
2019-05-05T20:43:17.008Z,15.07
2019-05-05T20:45:46.017Z,12.43
2019-05-05T20:48:54.284Z,12.10
2019-05-05T20:51:13.767Z,9.77
2019-05-05T20:53:48.939Z,14.33
2019-05-05T20:56:16.477Z,10.53
2019-05-05T20:58:45.429Z,10.67
2019-05-05T21:01:17.607Z,17.30
2019-05-05T21:03:47.643Z,26.80
2019-05-05T21:06:16.542Z,30.17
2019-05-05T21:08:52.601Z,22.10
2019-05-05T21:11:21.843Z,35.07
2019-05-05T21:13:50.860Z,31.70
2019-05-05T21:16:19.976Z,30.90
2019-05-05T21:18:49.010Z,30.57
2019-05-05T21:21:24.657Z,31.43
2019-05-05T21:24:00.663Z,33.87
2019-05-05T21:26:47.361Z,23.80
2019-05-05T21:29:17.707Z,21.73
2019-05-05T21:31:46.774Z,11.13
2019-05-05T21:34:15.954Z,9.27
2019-05-05T21:36:45.049Z,9.30
2019-05-05T21:39:15.439Z,8.40
2019-05-05T21:41:45.828Z,9.33
2019-05-05T21:44:14.885Z,8.17
2019-05-05T21:46:43.880Z,9.10
2019-05-05T21:49:13.609Z,8.07
2019-05-05T21:51:53.978Z,8.87
2019-05-05T21:54:43.912Z,8.00
2019-05-05T21:57:41.374Z,8.67
2019-05-05T22:00:28.360Z,9.03
2019-05-05T22:02:58.036Z,9.07
2019-05-05T22:05:28.056Z,9.90
2019-05-05T22:07:56.969Z,11.60
2019-05-05T22:10:25.982Z,10.87
2019-05-05T22:12:55.020Z,12.27
2019-05-05T22:15:23.952Z,11.33
2019-05-05T22:17:54.282Z,10.77
2019-05-05T22:20:33.969Z,12.63
2019-05-05T22:23:03.796Z,10.73
2019-05-05T22:25:34.161Z,10.00
2019-05-05T22:28:04.264Z,11.80
2019-05-05T22:30:34.441Z,10.43
2019-05-05T22:33:05.723Z,9.93
2019-05-05T22:35:34.885Z,10.40
2019-05-05T22:38:06.119Z,10.10
2019-05-05T22:40:35.252Z,15.53
2019-05-05T22:43:05.450Z,12.73
2019-05-05T22:45:34.457Z,13.73
2019-05-05T22:48:04.719Z,14.80
2019-05-05T22:50:34.159Z,16.80
2019-05-05T22:53:03.217Z,12.73
2019-05-05T22:55:34.359Z,15.00
2019-05-05T22:58:03.971Z,16.40
2019-05-05T23:00:34.772Z,13.73
2019-05-05T23:03:16.076Z,13.53
2019-05-05T23:05:55.638Z,15.17
2019-05-05T23:08:25.705Z,14.80
2019-05-05T23:10:54.643Z,14.67
2019-05-05T23:13:23.682Z,15.20
2019-05-05T23:15:59.968Z,10.90
2019-05-05T23:18:28.985Z,11.43
2019-05-05T23:21:21.942Z,15.23
2019-05-05T23:24:23.815Z,16.57
2019-05-05T23:26:54.600Z,16.10
2019-05-05T23:29:26.644Z,12.97
2019-05-05T23:31:55.651Z,13.83
2019-05-05T23:34:24.646Z,12.27
2019-05-05T23:36:53.713Z,11.43
2019-05-05T23:39:24.275Z,11.73
2019-05-05T23:41:54.823Z,12.10
2019-05-05T23:44:26.154Z,10.33
2019-05-05T23:46:55.105Z,11.63
2019-05-05T23:49:24.373Z,10.67
2019-05-05T23:51:55.200Z,11.07
2019-05-05T23:54:24.827Z,10.60
2019-05-05T23:56:54.069Z,9.97
2019-05-05T23:59:24.045Z,10.63
